Hauptseite
METAR-TAF:

METAR-TAF

Flughäfen :

Flughafen Chambéry-Savoie

Chambery / Aix-Les-Bains, Frankreich

Breite: 45-39N, Länge: 005-53E, Höhe: 235 m

Beobachtung

Neuester Wetterbericht von vor 15 Minuten, um 10:00 UTC
Wind 6 kt aus Nord, variierte zwischen Nordwest und Nord/Nordost
Temperatur 10°C
Luftfeuchtigkeit 76%
Luftdruck 1025 hPa
Sichtweite 10 km oder mehr
Geschlossene Wolkendecke in der Höhe von 2200 ft

METAR: LFLB 161000Z AUTO 35006KT 320V020 9999 OVC022 10/06 Q1025 NOSIG

Zeit: 11:15 (10:15 UTC)

Prognose

Neuester Wetterbericht von vor 5 Stunden und 15 Minuten, um 05:00 UTC
Gültige Prognose vom 16 um 06 UTC bis 17 um 06 UTC
Wind 6 kt aus Nord
Sichtweite 10 km oder mehr
Durchbrochene Bewölkung in der Höhe von 2000 ft
Wahrscheinlichkeit 30% :
Zeitweise
vom 16 um 12 UTC bis 16 um 17 UTC

TAF: LFLB 160500Z 1606/1706 36006KT 9999 BKN020 PROB30 TEMPO 1612/1617 NSC

Wetterbeobachtungen und Prognosen von mehr als 4000 Flughäfen (METAR und TAF Bericht).

Die verfügbaren Stationen werden durch gelbe und rote Markierungen auf der Karte dargestellt.

Führen Sie die Maus auf sie, um den Namen der Station zu sehen.

Darauf klicken, um die Beobachtung von Wetterbeobachtungen und Prognosen zu sehen.

Um die Karte zu ändern : klicken Sie auf den grünen Tasten mit einem schwarzen Kreuz Zum Vergrößern, auf den grünen Button mit einem Gedankenstrich zu verkleinern, oder auf die grünen Pfeile für benachbarte Karten.


METAR-TAF: